sensor_id;sensor_type;location;lat;lon;timestamp;temperature;humidity
5775;DHT22;2913;51.120;6.772;2024-01-07T00:02:20;3.40;99.90
5775;DHT22;2913;51.120;6.772;2024-01-07T00:04:47;3.40;99.90
5775;DHT22;2913;51.120;6.772;2024-01-07T00:07:16;3.50;99.90
5775;DHT22;2913;51.120;6.772;2024-01-07T00:09:41;3.40;99.90
5775;DHT22;2913;51.120;6.772;2024-01-07T00:12:09;3.40;99.90
5775;DHT22;2913;51.120;6.772;2024-01-07T00:14:37;3.30;99.90
5775;DHT22;2913;51.120;6.772;2024-01-07T00:17:03;3.30;99.90
5775;DHT22;2913;51.120;6.772;2024-01-07T00:19:28;3.30;99.90
5775;DHT22;2913;51.120;6.772;2024-01-07T00:21:57;3.30;99.90
5775;DHT22;2913;51.120;6.772;2024-01-07T00:24:22;3.30;99.90
5775;DHT22;2913;51.120;6.772;2024-01-07T00:26:51;3.20;99.90
5775;DHT22;2913;51.120;6.772;2024-01-07T00:29:16;3.10;99.90
5775;DHT22;2913;51.120;6.772;2024-01-07T00:31:44;3.20;99.90
5775;DHT22;2913;51.120;6.772;2024-01-07T00:34:10;3.30;99.90
5775;DHT22;2913;51.120;6.772;2024-01-07T00:36:35;3.20;99.90
5775;DHT22;2913;51.120;6.772;2024-01-07T00:39:01;3.20;99.90
5775;DHT22;2913;51.120;6.772;2024-01-07T00:41:26;3.20;99.90
5775;DHT22;2913;51.120;6.772;2024-01-07T00:43:52;3.20;99.90
5775;DHT22;2913;51.120;6.772;2024-01-07T00:46:20;3.30;99.90
5775;DHT22;2913;51.120;6.772;2024-01-07T00:48:46;3.30;99.90
5775;DHT22;2913;51.120;6.772;2024-01-07T00:51:14;3.20;99.90
5775;DHT22;2913;51.120;6.772;2024-01-07T00:53:39;3.20;99.90
5775;DHT22;2913;51.120;6.772;2024-01-07T00:56:06;3.30;99.90
5775;DHT22;2913;51.120;6.772;2024-01-07T00:58:31;3.10;99.90
5775;DHT22;2913;51.120;6.772;2024-01-07T01:00:57;3.20;99.90
5775;DHT22;2913;51.120;6.772;2024-01-07T01:05:49;2.90;99.90
5775;DHT22;2913;51.120;6.772;2024-01-07T01:08:17;3.00;99.90
5775;DHT22;2913;51.120;6.772;2024-01-07T01:10:43;3.00;99.90
5775;DHT22;2913;51.120;6.772;2024-01-07T01:13:09;2.90;99.90
5775;DHT22;2913;51.120;6.772;2024-01-07T01:15:36;2.80;99.90
5775;DHT22;2913;51.120;6.772;2024-01-07T01:18:05;2.90;99.90
5775;DHT22;2913;51.120;6.772;2024-01-07T01:20:31;2.90;99.90
5775;DHT22;2913;51.120;6.772;2024-01-07T01:25:25;2.80;99.90
5775;DHT22;2913;51.120;6.772;2024-01-07T01:27:51;2.80;99.90
5775;DHT22;2913;51.120;6.772;2024-01-07T01:30:21;2.70;99.90
5775;DHT22;2913;51.120;6.772;2024-01-07T01:32:47;2.70;99.90
5775;DHT22;2913;51.120;6.772;2024-01-07T01:35:15;2.80;99.90
5775;DHT22;2913;51.120;6.772;2024-01-07T01:37:40;2.80;99.90
5775;DHT22;2913;51.120;6.772;2024-01-07T01:40:06;2.80;99.90
5775;DHT22;2913;51.120;6.772;2024-01-07T01:42:32;2.80;99.90
5775;DHT22;2913;51.120;6.772;2024-01-07T01:44:58;2.90;99.90
5775;DHT22;2913;51.120;6.772;2024-01-07T01:47:30;2.60;99.90
5775;DHT22;2913;51.120;6.772;2024-01-07T01:49:57;2.80;99.90
5775;DHT22;2913;51.120;6.772;2024-01-07T01:52:27;2.70;99.90
5775;DHT22;2913;51.120;6.772;2024-01-07T01:54:53;2.70;99.90
5775;DHT22;2913;51.120;6.772;2024-01-07T01:57:20;2.60;99.90
5775;DHT22;2913;51.120;6.772;2024-01-07T01:59:49;2.70;99.90
5775;DHT22;2913;51.120;6.772;2024-01-07T02:02:15;2.70;99.90
5775;DHT22;2913;51.120;6.772;2024-01-07T02:04:41;2.60;99.90
5775;DHT22;2913;51.120;6.772;2024-01-07T02:07:07;2.60;99.90
5775;DHT22;2913;51.120;6.772;2024-01-07T02:09:32;2.70;99.90
5775;DHT22;2913;51.120;6.772;2024-01-07T02:14:30;2.60;99.90
5775;DHT22;2913;51.120;6.772;2024-01-07T02:16:56;2.60;99.90
5775;DHT22;2913;51.120;6.772;2024-01-07T02:19:24;2.70;99.90
5775;DHT22;2913;51.120;6.772;2024-01-07T02:21:51;2.70;99.90
5775;DHT22;2913;51.120;6.772;2024-01-07T02:24:17;2.60;99.90
5775;DHT22;2913;51.120;6.772;2024-01-07T02:26:43;2.80;99.90
5775;DHT22;2913;51.120;6.772;2024-01-07T02:29:11;2.80;99.90
5775;DHT22;2913;51.120;6.772;2024-01-07T02:31:36;2.80;99.90
5775;DHT22;2913;51.120;6.772;2024-01-07T02:36:30;2.70;99.90
5775;DHT22;2913;51.120;6.772;2024-01-07T02:38:56;2.80;99.90
5775;DHT22;2913;51.120;6.772;2024-01-07T02:41:21;2.80;99.90
5775;DHT22;2913;51.120;6.772;2024-01-07T02:43:51;2.70;99.90
5775;DHT22;2913;51.120;6.772;2024-01-07T02:48:42;2.70;99.90
5775;DHT22;2913;51.120;6.772;2024-01-07T02:51:10;2.80;99.90
5775;DHT22;2913;51.120;6.772;2024-01-07T02:53:36;2.60;99.90
5775;DHT22;2913;51.120;6.772;2024-01-07T02:56:01;2.70;99.90
5775;DHT22;2913;51.120;6.772;2024-01-07T02:58:27;2.60;99.90
5775;DHT22;2913;51.120;6.772;2024-01-07T03:00:52;2.60;99.90
5775;DHT22;2913;51.120;6.772;2024-01-07T03:03:23;2.80;99.90
5775;DHT22;2913;51.120;6.772;2024-01-07T03:05:48;2.60;99.90
5775;DHT22;2913;51.120;6.772;2024-01-07T03:08:17;2.70;99.90
5775;DHT22;2913;51.120;6.772;2024-01-07T03:10:42;2.70;99.90
5775;DHT22;2913;51.120;6.772;2024-01-07T03:15:36;2.70;99.90
5775;DHT22;2913;51.120;6.772;2024-01-07T03:18:04;2.40;99.90
5775;DHT22;2913;51.120;6.772;2024-01-07T03:20:34;2.50;99.90
5775;DHT22;2913;51.120;6.772;2024-01-07T03:23:03;2.50;99.90
5775;DHT22;2913;51.120;6.772;2024-01-07T03:25:28;2.50;99.90
5775;DHT22;2913;51.120;6.772;2024-01-07T03:27:54;2.50;99.90
5775;DHT22;2913;51.120;6.772;2024-01-07T03:30:22;2.30;99.90
5775;DHT22;2913;51.120;6.772;2024-01-07T03:32:50;2.40;99.90
5775;DHT22;2913;51.120;6.772;2024-01-07T03:35:15;2.40;99.90
5775;DHT22;2913;51.120;6.772;2024-01-07T03:37:43;2.40;99.90
5775;DHT22;2913;51.120;6.772;2024-01-07T03:40:14;2.30;99.90
5775;DHT22;2913;51.120;6.772;2024-01-07T03:42:39;2.10;99.90
5775;DHT22;2913;51.120;6.772;2024-01-07T03:45:08;2.40;99.90
5775;DHT22;2913;51.120;6.772;2024-01-07T03:47:36;2.40;99.90
5775;DHT22;2913;51.120;6.772;2024-01-07T03:50:01;2.40;99.90
5775;DHT22;2913;51.120;6.772;2024-01-07T03:52:29;2.40;99.90
5775;DHT22;2913;51.120;6.772;2024-01-07T03:54:55;2.30;99.90
5775;DHT22;2913;51.120;6.772;2024-01-07T03:57:20;2.30;99.90
5775;DHT22;2913;51.120;6.772;2024-01-07T04:02:12;2.40;99.90
5775;DHT22;2913;51.120;6.772;2024-01-07T04:04:42;2.30;99.90
5775;DHT22;2913;51.120;6.772;2024-01-07T04:07:07;2.40;99.90
5775;DHT22;2913;51.120;6.772;2024-01-07T04:09:35;2.40;99.90
5775;DHT22;2913;51.120;6.772;2024-01-07T04:12:01;2.30;99.90
5775;DHT22;2913;51.120;6.772;2024-01-07T04:14:29;2.40;99.90
5775;DHT22;2913;51.120;6.772;2024-01-07T04:16:58;2.40;99.90
5775;DHT22;2913;51.120;6.772;2024-01-07T04:19:24;2.30;99.90
5775;DHT22;2913;51.120;6.772;2024-01-07T04:26:42;2.20;99.90
5775;DHT22;2913;51.120;6.772;2024-01-07T04:29:10;2.20;99.90
5775;DHT22;2913;51.120;6.772;2024-01-07T04:31:36;2.20;99.90
5775;DHT22;2913;51.120;6.772;2024-01-07T04:34:06;2.30;99.90
5775;DHT22;2913;51.120;6.772;2024-01-07T04:36:32;2.10;99.90
5775;DHT22;2913;51.120;6.772;2024-01-07T04:41:25;2.20;99.90
5775;DHT22;2913;51.120;6.772;2024-01-07T04:43:51;2.10;99.90
5775;DHT22;2913;51.120;6.772;2024-01-07T04:48:43;2.10;99.90
5775;DHT22;2913;51.120;6.772;2024-01-07T04:51:09;2.00;99.90
5775;DHT22;2913;51.120;6.772;2024-01-07T04:53:36;1.90;99.90
5775;DHT22;2913;51.120;6.772;2024-01-07T04:56:04;1.90;99.90
5775;DHT22;2913;51.120;6.772;2024-01-07T04:58:30;1.90;99.90
5775;DHT22;2913;51.120;6.772;2024-01-07T05:00:56;1.90;99.90
5775;DHT22;2913;51.120;6.772;2024-01-07T05:03:21;1.70;99.90
5775;DHT22;2913;51.120;6.772;2024-01-07T05:05:47;2.00;99.90
5775;DHT22;2913;51.120;6.772;2024-01-07T05:08:12;2.10;99.90
5775;DHT22;2913;51.120;6.772;2024-01-07T05:10:38;1.90;99.90
5775;DHT22;2913;51.120;6.772;2024-01-07T05:13:06;1.80;99.90
5775;DHT22;2913;51.120;6.772;2024-01-07T05:15:32;1.90;99.90
5775;DHT22;2913;51.120;6.772;2024-01-07T05:18:02;1.80;99.90
5775;DHT22;2913;51.120;6.772;2024-01-07T05:20:34;1.90;99.90
5775;DHT22;2913;51.120;6.772;2024-01-07T05:25:28;1.80;99.90
5775;DHT22;2913;51.120;6.772;2024-01-07T05:27:56;1.80;99.90
5775;DHT22;2913;51.120;6.772;2024-01-07T05:30:22;1.90;99.90
5775;DHT22;2913;51.120;6.772;2024-01-07T05:32:47;1.80;99.90
5775;DHT22;2913;51.120;6.772;2024-01-07T05:35:13;1.80;99.90
5775;DHT22;2913;51.120;6.772;2024-01-07T05:37:38;1.80;99.90
5775;DHT22;2913;51.120;6.772;2024-01-07T05:40:07;1.70;99.90
5775;DHT22;2913;51.120;6.772;2024-01-07T05:42:35;1.90;99.90
5775;DHT22;2913;51.120;6.772;2024-01-07T05:45:01;1.70;99.90
5775;DHT22;2913;51.120;6.772;2024-01-07T05:47:28;1.80;99.90
5775;DHT22;2913;51.120;6.772;2024-01-07T05:52:24;1.90;99.90
5775;DHT22;2913;51.120;6.772;2024-01-07T05:54:50;1.70;99.90
5775;DHT22;2913;51.120;6.772;2024-01-07T05:57:15;1.90;99.90
5775;DHT22;2913;51.120;6.772;2024-01-07T05:59:41;1.80;99.90
5775;DHT22;2913;51.120;6.772;2024-01-07T06:02:06;1.90;99.90
5775;DHT22;2913;51.120;6.772;2024-01-07T06:04:34;1.80;99.90
5775;DHT22;2913;51.120;6.772;2024-01-07T06:07:02;1.80;99.90
5775;DHT22;2913;51.120;6.772;2024-01-07T06:09:30;1.60;99.90
5775;DHT22;2913;51.120;6.772;2024-01-07T06:14:25;1.60;99.90
5775;DHT22;2913;51.120;6.772;2024-01-07T06:16:53;1.70;99.90
5775;DHT22;2913;51.120;6.772;2024-01-07T06:19:18;1.60;99.90
5775;DHT22;2913;51.120;6.772;2024-01-07T06:21:44;1.60;99.90
5775;DHT22;2913;51.120;6.772;2024-01-07T06:24:13;1.70;99.90
5775;DHT22;2913;51.120;6.772;2024-01-07T06:26:40;1.70;99.90
5775;DHT22;2913;51.120;6.772;2024-01-07T06:29:06;1.60;99.90
5775;DHT22;2913;51.120;6.772;2024-01-07T06:31:31;1.60;99.90
5775;DHT22;2913;51.120;6.772;2024-01-07T06:33:59;1.50;99.90
5775;DHT22;2913;51.120;6.772;2024-01-07T06:36:27;1.60;99.90
5775;DHT22;2913;51.120;6.772;2024-01-07T06:38:57;1.60;99.90
5775;DHT22;2913;51.120;6.772;2024-01-07T06:43:49;1.40;99.90
5775;DHT22;2913;51.120;6.772;2024-01-07T06:46:17;1.50;99.90
5775;DHT22;2913;51.120;6.772;2024-01-07T06:48:43;1.50;99.90
5775;DHT22;2913;51.120;6.772;2024-01-07T06:51:09;1.60;99.90
5775;DHT22;2913;51.120;6.772;2024-01-07T06:53:36;1.60;99.90
5775;DHT22;2913;51.120;6.772;2024-01-07T06:56:07;1.60;99.90
5775;DHT22;2913;51.120;6.772;2024-01-07T06:58:32;1.60;99.90
5775;DHT22;2913;51.120;6.772;2024-01-07T07:01:01;1.50;99.90
5775;DHT22;2913;51.120;6.772;2024-01-07T07:03:26;1.60;99.90
5775;DHT22;2913;51.120;6.772;2024-01-07T07:05:52;1.60;99.90
5775;DHT22;2913;51.120;6.772;2024-01-07T07:08:17;1.50;99.90
5775;DHT22;2913;51.120;6.772;2024-01-07T07:10:43;1.60;99.90
5775;DHT22;2913;51.120;6.772;2024-01-07T07:13:08;1.70;99.90
5775;DHT22;2913;51.120;6.772;2024-01-07T07:15:34;1.70;99.90
5775;DHT22;2913;51.120;6.772;2024-01-07T07:18:01;1.70;99.90
5775;DHT22;2913;51.120;6.772;2024-01-07T07:20:26;1.70;99.90
5775;DHT22;2913;51.120;6.772;2024-01-07T07:22:52;1.40;99.90
5775;DHT22;2913;51.120;6.772;2024-01-07T07:25:18;1.60;99.90
5775;DHT22;2913;51.120;6.772;2024-01-07T07:27:44;1.60;99.90
5775;DHT22;2913;51.120;6.772;2024-01-07T07:30:12;1.70;99.90
5775;DHT22;2913;51.120;6.772;2024-01-07T07:32:43;1.60;99.90
5775;DHT22;2913;51.120;6.772;2024-01-07T07:37:35;1.60;99.90
5775;DHT22;2913;51.120;6.772;2024-01-07T07:40:01;1.60;99.90
5775;DHT22;2913;51.120;6.772;2024-01-07T07:42:28;1.70;99.90
5775;DHT22;2913;51.120;6.772;2024-01-07T07:44:56;1.60;99.90
5775;DHT22;2913;51.120;6.772;2024-01-07T07:52:17;1.60;99.90
5775;DHT22;2913;51.120;6.772;2024-01-07T07:57:13;1.60;99.90
5775;DHT22;2913;51.120;6.772;2024-01-07T07:59:39;1.50;99.90
5775;DHT22;2913;51.120;6.772;2024-01-07T08:02:04;1.60;99.90
5775;DHT22;2913;51.120;6.772;2024-01-07T08:04:32;1.50;99.90
5775;DHT22;2913;51.120;6.772;2024-01-07T08:07:02;1.50;99.90
5775;DHT22;2913;51.120;6.772;2024-01-07T08:09:28;1.50;99.90
5775;DHT22;2913;51.120;6.772;2024-01-07T08:11:54;1.40;99.90
5775;DHT22;2913;51.120;6.772;2024-01-07T08:19:13;2.30;99.90
5775;DHT22;2913;51.120;6.772;2024-01-07T08:21:39;1.50;99.90
5775;DHT22;2913;51.120;6.772;2024-01-07T08:24:05;1.50;99.90
5775;DHT22;2913;51.120;6.772;2024-01-07T08:26:30;1.40;99.90
5775;DHT22;2913;51.120;6.772;2024-01-07T08:28:56;1.40;99.90
5775;DHT22;2913;51.120;6.772;2024-01-07T08:33:50;1.40;99.90
5775;DHT22;2913;51.120;6.772;2024-01-07T08:36:18;1.50;99.90
5775;DHT22;2913;51.120;6.772;2024-01-07T08:38:44;1.40;99.90
5775;DHT22;2913;51.120;6.772;2024-01-07T08:43:35;1.40;99.90
5775;DHT22;2913;51.120;6.772;2024-01-07T08:46:03;1.40;99.90
5775;DHT22;2913;51.120;6.772;2024-01-07T08:48:30;1.40;99.90
5775;DHT22;2913;51.120;6.772;2024-01-07T08:50:55;1.40;99.90
5775;DHT22;2913;51.120;6.772;2024-01-07T08:53:23;2.20;99.90
5775;DHT22;2913;51.120;6.772;2024-01-07T08:55:48;1.40;99.90
5775;DHT22;2913;51.120;6.772;2024-01-07T08:58:15;1.40;99.90
5775;DHT22;2913;51.120;6.772;2024-01-07T09:00:42;1.20;99.90
5775;DHT22;2913;51.120;6.772;2024-01-07T09:03:08;1.30;99.90
5775;DHT22;2913;51.120;6.772;2024-01-07T09:05:33;1.20;99.90
5775;DHT22;2913;51.120;6.772;2024-01-07T09:08:02;1.30;99.90
5775;DHT22;2913;51.120;6.772;2024-01-07T09:10:29;1.30;99.90
5775;DHT22;2913;51.120;6.772;2024-01-07T09:12:55;1.30;99.90
5775;DHT22;2913;51.120;6.772;2024-01-07T09:15:21;1.30;99.90
5775;DHT22;2913;51.120;6.772;2024-01-07T09:17:48;1.30;99.90
5775;DHT22;2913;51.120;6.772;2024-01-07T09:22:45;1.30;99.90
5775;DHT22;2913;51.120;6.772;2024-01-07T09:25:11;1.30;99.90
5775;DHT22;2913;51.120;6.772;2024-01-07T09:27:36;1.40;99.90
5775;DHT22;2913;51.120;6.772;2024-01-07T09:30:05;1.40;99.90
5775;DHT22;2913;51.120;6.772;2024-01-07T09:32:36;1.30;99.90
5775;DHT22;2913;51.120;6.772;2024-01-07T09:35:02;1.40;99.90
5775;DHT22;2913;51.120;6.772;2024-01-07T09:37:31;1.40;99.90
5775;DHT22;2913;51.120;6.772;2024-01-07T09:39:59;1.30;99.90
5775;DHT22;2913;51.120;6.772;2024-01-07T09:42:24;1.40;99.90
5775;DHT22;2913;51.120;6.772;2024-01-07T09:44:53;1.40;99.90
5775;DHT22;2913;51.120;6.772;2024-01-07T09:47:19;1.40;99.90
5775;DHT22;2913;51.120;6.772;2024-01-07T09:49:46;1.60;99.90
5775;DHT22;2913;51.120;6.772;2024-01-07T09:52:12;1.50;99.90
5775;DHT22;2913;51.120;6.772;2024-01-07T09:54:40;1.40;99.90
5775;DHT22;2913;51.120;6.772;2024-01-07T09:57:07;1.40;99.90
5775;DHT22;2913;51.120;6.772;2024-01-07T09:59:36;1.30;99.90
5775;DHT22;2913;51.120;6.772;2024-01-07T10:02:05;1.20;99.90
5775;DHT22;2913;51.120;6.772;2024-01-07T10:04:33;1.10;99.90
5775;DHT22;2913;51.120;6.772;2024-01-07T10:07:00;1.10;99.90
5775;DHT22;2913;51.120;6.772;2024-01-07T10:09:33;1.10;99.90
5775;DHT22;2913;51.120;6.772;2024-01-07T10:11:58;1.00;99.90
5775;DHT22;2913;51.120;6.772;2024-01-07T10:14:27;1.10;99.90
5775;DHT22;2913;51.120;6.772;2024-01-07T10:16:52;1.00;99.90
5775;DHT22;2913;51.120;6.772;2024-01-07T10:19:22;1.00;99.90
5775;DHT22;2913;51.120;6.772;2024-01-07T10:22:04;1.10;99.90
5775;DHT22;2913;51.120;6.772;2024-01-07T10:24:40;1.10;99.90
5775;DHT22;2913;51.120;6.772;2024-01-07T10:29:41;1.20;99.90
5775;DHT22;2913;51.120;6.772;2024-01-07T10:32:06;1.10;99.90
5775;DHT22;2913;51.120;6.772;2024-01-07T10:34:33;1.10;99.90
5775;DHT22;2913;51.120;6.772;2024-01-07T10:37:03;1.20;99.90
5775;DHT22;2913;51.120;6.772;2024-01-07T10:39:33;1.20;99.90
5775;DHT22;2913;51.120;6.772;2024-01-07T10:41:59;1.30;99.90
5775;DHT22;2913;51.120;6.772;2024-01-07T10:44:26;1.30;99.90
5775;DHT22;2913;51.120;6.772;2024-01-07T10:46:55;1.40;99.90
5775;DHT22;2913;51.120;6.772;2024-01-07T10:49:23;1.30;99.90
5775;DHT22;2913;51.120;6.772;2024-01-07T10:52:04;1.40;99.90
5775;DHT22;2913;51.120;6.772;2024-01-07T10:54:32;1.30;99.90
5775;DHT22;2913;51.120;6.772;2024-01-07T10:57:04;1.60;99.90
5775;DHT22;2913;51.120;6.772;2024-01-07T10:59:31;1.30;99.90
5775;DHT22;2913;51.120;6.772;2024-01-07T11:01:58;1.40;99.90
5775;DHT22;2913;51.120;6.772;2024-01-07T11:04:32;1.40;99.90
5775;DHT22;2913;51.120;6.772;2024-01-07T11:07:15;1.30;99.90
5775;DHT22;2913;51.120;6.772;2024-01-07T11:10:12;1.30;99.90
5775;DHT22;2913;51.120;6.772;2024-01-07T11:12:39;1.40;99.90
5775;DHT22;2913;51.120;6.772;2024-01-07T11:15:04;1.50;99.90
5775;DHT22;2913;51.120;6.772;2024-01-07T11:20:12;1.40;99.90
5775;DHT22;2913;51.120;6.772;2024-01-07T11:22:39;1.30;99.90
5775;DHT22;2913;51.120;6.772;2024-01-07T11:25:28;1.40;99.90
5775;DHT22;2913;51.120;6.772;2024-01-07T11:27:58;1.40;99.90
5775;DHT22;2913;51.120;6.772;2024-01-07T11:30:24;1.40;99.90
5775;DHT22;2913;51.120;6.772;2024-01-07T11:32:59;1.40;99.90
5775;DHT22;2913;51.120;6.772;2024-01-07T11:35:54;1.40;99.90
5775;DHT22;2913;51.120;6.772;2024-01-07T11:38:19;1.50;99.90
5775;DHT22;2913;51.120;6.772;2024-01-07T11:40:46;1.30;99.90
5775;DHT22;2913;51.120;6.772;2024-01-07T11:43:15;1.30;99.90
5775;DHT22;2913;51.120;6.772;2024-01-07T11:48:07;1.30;99.90
5775;DHT22;2913;51.120;6.772;2024-01-07T11:50:37;1.30;99.90
5775;DHT22;2913;51.120;6.772;2024-01-07T11:53:05;1.20;99.90
5775;DHT22;2913;51.120;6.772;2024-01-07T11:55:31;1.20;99.90
5775;DHT22;2913;51.120;6.772;2024-01-07T11:58:08;1.20;99.90
5775;DHT22;2913;51.120;6.772;2024-01-07T12:00:36;1.20;99.90
5775;DHT22;2913;51.120;6.772;2024-01-07T12:03:02;1.10;99.90
5775;DHT22;2913;51.120;6.772;2024-01-07T12:05:31;0.90;99.90
5775;DHT22;2913;51.120;6.772;2024-01-07T12:08:00;1.00;99.90
5775;DHT22;2913;51.120;6.772;2024-01-07T12:10:26;1.10;99.90
5775;DHT22;2913;51.120;6.772;2024-01-07T12:12:52;1.10;99.90
5775;DHT22;2913;51.120;6.772;2024-01-07T12:15:18;1.20;99.90
5775;DHT22;2913;51.120;6.772;2024-01-07T12:17:56;1.20;99.90
5775;DHT22;2913;51.120;6.772;2024-01-07T12:20:22;1.20;99.90
5775;DHT22;2913;51.120;6.772;2024-01-07T12:22:50;1.20;99.90
5775;DHT22;2913;51.120;6.772;2024-01-07T12:25:23;1.30;99.90
5775;DHT22;2913;51.120;6.772;2024-01-07T12:30:23;1.20;99.90
5775;DHT22;2913;51.120;6.772;2024-01-07T12:32:51;1.20;99.90
5775;DHT22;2913;51.120;6.772;2024-01-07T12:35:17;1.20;99.90
5775;DHT22;2913;51.120;6.772;2024-01-07T12:37:43;1.40;99.90
5775;DHT22;2913;51.120;6.772;2024-01-07T12:40:12;1.20;99.90
5775;DHT22;2913;51.120;6.772;2024-01-07T12:42:41;1.30;99.90
5775;DHT22;2913;51.120;6.772;2024-01-07T12:45:13;1.30;99.90
5775;DHT22;2913;51.120;6.772;2024-01-07T12:47:42;1.40;99.90
5775;DHT22;2913;51.120;6.772;2024-01-07T12:50:12;1.30;99.90
5775;DHT22;2913;51.120;6.772;2024-01-07T12:52:41;1.20;99.90
5775;DHT22;2913;51.120;6.772;2024-01-07T12:55:07;1.40;99.90
5775;DHT22;2913;51.120;6.772;2024-01-07T12:57:33;1.30;99.90
5775;DHT22;2913;51.120;6.772;2024-01-07T12:59:59;1.30;99.90
5775;DHT22;2913;51.120;6.772;2024-01-07T13:02:27;1.20;99.90
5775;DHT22;2913;51.120;6.772;2024-01-07T13:04:55;1.20;99.90
5775;DHT22;2913;51.120;6.772;2024-01-07T13:09:47;1.00;99.90
5775;DHT22;2913;51.120;6.772;2024-01-07T13:12:12;1.00;99.90
5775;DHT22;2913;51.120;6.772;2024-01-07T13:14:38;0.80;99.90
5775;DHT22;2913;51.120;6.772;2024-01-07T13:17:03;0.80;99.90
5775;DHT22;2913;51.120;6.772;2024-01-07T13:19:31;0.90;99.90
5775;DHT22;2913;51.120;6.772;2024-01-07T13:21:57;0.90;99.90
5775;DHT22;2913;51.120;6.772;2024-01-07T13:24:27;0.80;99.90
5775;DHT22;2913;51.120;6.772;2024-01-07T13:26:55;0.70;99.90
5775;DHT22;2913;51.120;6.772;2024-01-07T13:29:23;0.50;99.90
5775;DHT22;2913;51.120;6.772;2024-01-07T13:34:16;0.50;99.90
5775;DHT22;2913;51.120;6.772;2024-01-07T13:36:43;0.40;99.90
5775;DHT22;2913;51.120;6.772;2024-01-07T13:39:09;0.40;99.90
5775;DHT22;2913;51.120;6.772;2024-01-07T13:41:35;0.50;99.90
5775;DHT22;2913;51.120;6.772;2024-01-07T13:44:01;0.60;99.90
5775;DHT22;2913;51.120;6.772;2024-01-07T13:46:28;0.50;99.90
5775;DHT22;2913;51.120;6.772;2024-01-07T13:48:56;0.60;99.90
5775;DHT22;2913;51.120;6.772;2024-01-07T13:51:22;0.60;99.90
5775;DHT22;2913;51.120;6.772;2024-01-07T13:53:47;0.70;99.90
5775;DHT22;2913;51.120;6.772;2024-01-07T13:56:13;0.70;99.90
5775;DHT22;2913;51.120;6.772;2024-01-07T13:58:39;0.50;99.90
5775;DHT22;2913;51.120;6.772;2024-01-07T14:01:05;0.50;99.90
5775;DHT22;2913;51.120;6.772;2024-01-07T14:03:33;0.50;99.90
5775;DHT22;2913;51.120;6.772;2024-01-07T14:05:59;0.30;99.90
5775;DHT22;2913;51.120;6.772;2024-01-07T14:08:26;0.40;99.90
5775;DHT22;2913;51.120;6.772;2024-01-07T14:10:51;0.50;99.90
5775;DHT22;2913;51.120;6.772;2024-01-07T14:13:17;0.40;99.90
5775;DHT22;2913;51.120;6.772;2024-01-07T14:15:45;0.40;99.90
5775;DHT22;2913;51.120;6.772;2024-01-07T14:18:13;0.30;99.90
5775;DHT22;2913;51.120;6.772;2024-01-07T14:20:41;0.30;99.90
5775;DHT22;2913;51.120;6.772;2024-01-07T14:23:09;0.20;99.90
5775;DHT22;2913;51.120;6.772;2024-01-07T14:25:35;0.30;99.90
5775;DHT22;2913;51.120;6.772;2024-01-07T14:28:03;0.20;99.90
5775;DHT22;2913;51.120;6.772;2024-01-07T14:30:29;0.30;99.90
5775;DHT22;2913;51.120;6.772;2024-01-07T14:32:55;0.30;99.90
5775;DHT22;2913;51.120;6.772;2024-01-07T14:35:20;0.00;99.90
5775;DHT22;2913;51.120;6.772;2024-01-07T14:37:46;0.20;99.90
5775;DHT22;2913;51.120;6.772;2024-01-07T14:40:14;0.30;99.90
5775;DHT22;2913;51.120;6.772;2024-01-07T14:42:39;0.10;99.90
5775;DHT22;2913;51.120;6.772;2024-01-07T14:45:06;0.10;99.90
5775;DHT22;2913;51.120;6.772;2024-01-07T14:47:31;0.30;99.90
5775;DHT22;2913;51.120;6.772;2024-01-07T14:52:23;0.10;99.90
5775;DHT22;2913;51.120;6.772;2024-01-07T14:54:51;0.20;99.90
5775;DHT22;2913;51.120;6.772;2024-01-07T14:57:17;0.30;99.90
5775;DHT22;2913;51.120;6.772;2024-01-07T14:59:43;0.10;99.90
5775;DHT22;2913;51.120;6.772;2024-01-07T15:02:08;0.10;99.90
5775;DHT22;2913;51.120;6.772;2024-01-07T15:04:34;0.30;99.90
5775;DHT22;2913;51.120;6.772;2024-01-07T15:07:00;0.00;99.90
5775;DHT22;2913;51.120;6.772;2024-01-07T15:09:25;0.10;99.90
5775;DHT22;2913;51.120;6.772;2024-01-07T15:11:51;0.10;99.90
5775;DHT22;2913;51.120;6.772;2024-01-07T15:14:22;0.10;99.90
5775;DHT22;2913;51.120;6.772;2024-01-07T15:16:53;0.10;99.90
5775;DHT22;2913;51.120;6.772;2024-01-07T15:19:22;0.20;99.90
5775;DHT22;2913;51.120;6.772;2024-01-07T15:21:47;0.20;99.90
5775;DHT22;2913;51.120;6.772;2024-01-07T15:24:13;0.10;99.90
5775;DHT22;2913;51.120;6.772;2024-01-07T15:26:41;0.20;99.90
5775;DHT22;2913;51.120;6.772;2024-01-07T15:29:09;0.10;99.90
5775;DHT22;2913;51.120;6.772;2024-01-07T15:31:37;0.20;99.90
5775;DHT22;2913;51.120;6.772;2024-01-07T15:34:02;0.20;99.90
5775;DHT22;2913;51.120;6.772;2024-01-07T15:36:32;0.20;99.90
5775;DHT22;2913;51.120;6.772;2024-01-07T15:38:58;0.20;99.90
5775;DHT22;2913;51.120;6.772;2024-01-07T15:41:24;0.30;99.90
5775;DHT22;2913;51.120;6.772;2024-01-07T15:43:52;0.30;99.90
5775;DHT22;2913;51.120;6.772;2024-01-07T15:46:17;0.20;99.90
5775;DHT22;2913;51.120;6.772;2024-01-07T15:48:43;0.20;99.90
5775;DHT22;2913;51.120;6.772;2024-01-07T15:51:13;0.10;99.90
5775;DHT22;2913;51.120;6.772;2024-01-07T15:53:44;0.30;99.90
5775;DHT22;2913;51.120;6.772;2024-01-07T15:58:37;0.30;99.90
5775;DHT22;2913;51.120;6.772;2024-01-07T16:01:06;0.20;99.90
5775;DHT22;2913;51.120;6.772;2024-01-07T16:03:35;0.20;99.90
5775;DHT22;2913;51.120;6.772;2024-01-07T16:06:03;0.30;99.90
5775;DHT22;2913;51.120;6.772;2024-01-07T16:08:31;0.30;99.90
5775;DHT22;2913;51.120;6.772;2024-01-07T16:10:59;0.30;99.90
5775;DHT22;2913;51.120;6.772;2024-01-07T16:15:54;0.20;99.90
5775;DHT22;2913;51.120;6.772;2024-01-07T16:18:19;0.30;99.90
5775;DHT22;2913;51.120;6.772;2024-01-07T16:20:45;0.50;99.90
5775;DHT22;2913;51.120;6.772;2024-01-07T16:23:13;0.30;99.90
5775;DHT22;2913;51.120;6.772;2024-01-07T16:25:41;0.30;99.90
5775;DHT22;2913;51.120;6.772;2024-01-07T16:28:07;0.30;99.90
5775;DHT22;2913;51.120;6.772;2024-01-07T16:30:35;0.20;99.90
5775;DHT22;2913;51.120;6.772;2024-01-07T16:33:03;0.30;99.90
5775;DHT22;2913;51.120;6.772;2024-01-07T16:35:30;0.40;99.90
5775;DHT22;2913;51.120;6.772;2024-01-07T16:40:23;0.40;99.90
5775;DHT22;2913;51.120;6.772;2024-01-07T16:42:48;0.30;99.90
5775;DHT22;2913;51.120;6.772;2024-01-07T16:45:16;0.30;99.90
5775;DHT22;2913;51.120;6.772;2024-01-07T16:47:42;0.30;99.90
5775;DHT22;2913;51.120;6.772;2024-01-07T16:50:07;0.40;99.90
5775;DHT22;2913;51.120;6.772;2024-01-07T16:52:35;0.40;99.90
5775;DHT22;2913;51.120;6.772;2024-01-07T16:55:04;0.40;99.90
5775;DHT22;2913;51.120;6.772;2024-01-07T16:57:32;0.40;99.90
5775;DHT22;2913;51.120;6.772;2024-01-07T16:59:58;0.30;99.90
5775;DHT22;2913;51.120;6.772;2024-01-07T17:02:24;0.40;99.90
5775;DHT22;2913;51.120;6.772;2024-01-07T17:04:49;0.40;99.90
5775;DHT22;2913;51.120;6.772;2024-01-07T17:07:15;0.50;99.90
5775;DHT22;2913;51.120;6.772;2024-01-07T17:12:07;0.50;99.90
5775;DHT22;2913;51.120;6.772;2024-01-07T17:14:35;0.50;99.90
5775;DHT22;2913;51.120;6.772;2024-01-07T17:17:00;0.40;99.90
5775;DHT22;2913;51.120;6.772;2024-01-07T17:19:26;0.50;99.90
5775;DHT22;2913;51.120;6.772;2024-01-07T17:26:44;0.50;99.90
5775;DHT22;2913;51.120;6.772;2024-01-07T17:29:11;0.40;99.90
5775;DHT22;2913;51.120;6.772;2024-01-07T17:31:37;0.50;99.90
5775;DHT22;2913;51.120;6.772;2024-01-07T17:34:03;0.40;99.90
5775;DHT22;2913;51.120;6.772;2024-01-07T17:36:28;0.50;99.90
5775;DHT22;2913;51.120;6.772;2024-01-07T17:38:59;0.50;99.90
5775;DHT22;2913;51.120;6.772;2024-01-07T17:41:29;0.50;99.90
5775;DHT22;2913;51.120;6.772;2024-01-07T17:43:55;0.40;99.90
5775;DHT22;2913;51.120;6.772;2024-01-07T17:46:23;0.50;99.90
5775;DHT22;2913;51.120;6.772;2024-01-07T17:48:49;0.40;99.90